sensor_id;sensor_type;location;lat;lon;timestamp;pressure;altitude;pressure_sealevel;temperature;humidity
41866;BME280;27539;43.222;27.558;2022-08-01T00:00:01;99999.31;;;20.78;100.00
41866;BME280;27539;43.222;27.558;2022-08-01T00:02:28;100005.97;;;20.91;100.00
41866;BME280;27539;43.222;27.558;2022-08-01T00:04:57;99985.50;;;20.77;100.00
41866;BME280;27539;43.222;27.558;2022-08-01T00:07:22;99981.84;;;20.93;100.00
41866;BME280;27539;43.222;27.558;2022-08-01T00:09:48;99988.34;;;20.94;100.00
41866;BME280;27539;43.222;27.558;2022-08-01T00:12:13;99992.38;;;21.02;100.00
41866;BME280;27539;43.222;27.558;2022-08-01T00:14:39;99987.88;;;21.09;100.00
41866;BME280;27539;43.222;27.558;2022-08-01T00:17:05;99979.72;;;21.08;100.00
41866;BME280;27539;43.222;27.558;2022-08-01T00:19:30;99980.88;;;20.89;100.00
41866;BME280;27539;43.222;27.558;2022-08-01T00:21:56;99982.69;;;20.94;100.00
41866;BME280;27539;43.222;27.558;2022-08-01T00:24:22;99952.41;;;20.68;100.00
41866;BME280;27539;43.222;27.558;2022-08-01T00:26:48;99942.44;;;20.62;100.00
41866;BME280;27539;43.222;27.558;2022-08-01T00:29:13;99974.69;;;20.70;100.00
41866;BME280;27539;43.222;27.558;2022-08-01T00:31:39;99976.69;;;20.69;100.00
41866;BME280;27539;43.222;27.558;2022-08-01T00:34:04;99937.69;;;20.32;100.00
41866;BME280;27539;43.222;27.558;2022-08-01T00:36:30;99964.81;;;20.50;100.00
41866;BME280;27539;43.222;27.558;2022-08-01T00:38:55;99970.75;;;20.40;100.00
41866;BME280;27539;43.222;27.558;2022-08-01T00:41:21;99953.75;;;20.31;100.00
41866;BME280;27539;43.222;27.558;2022-08-01T00:43:46;99954.13;;;20.29;100.00
41866;BME280;27539;43.222;27.558;2022-08-01T00:46:12;99959.56;;;20.26;100.00
41866;BME280;27539;43.222;27.558;2022-08-01T00:48:37;99957.88;;;20.16;100.00
41866;BME280;27539;43.222;27.558;2022-08-01T00:51:04;99955.91;;;20.17;100.00
41866;BME280;27539;43.222;27.558;2022-08-01T00:53:30;99962.66;;;20.07;100.00
41866;BME280;27539;43.222;27.558;2022-08-01T00:55:56;99950.03;;;20.04;100.00
41866;BME280;27539;43.222;27.558;2022-08-01T00:58:22;99955.81;;;19.99;100.00
41866;BME280;27539;43.222;27.558;2022-08-01T01:00:48;99942.81;;;19.90;100.00
41866;BME280;27539;43.222;27.558;2022-08-01T01:03:13;99934.75;;;20.05;100.00
41866;BME280;27539;43.222;27.558;2022-08-01T01:05:48;99932.28;;;20.13;100.00
41866;BME280;27539;43.222;27.558;2022-08-01T01:08:22;99932.84;;;20.41;100.00
41866;BME280;27539;43.222;27.558;2022-08-01T01:10:56;99894.88;;;20.64;100.00
41866;BME280;27539;43.222;27.558;2022-08-01T01:13:31;99933.31;;;21.00;100.00
41866;BME280;27539;43.222;27.558;2022-08-01T01:16:09;99881.91;;;21.07;100.00
41866;BME280;27539;43.222;27.558;2022-08-01T01:18:38;99918.16;;;21.40;100.00
41866;BME280;27539;43.222;27.558;2022-08-01T01:31:16;99921.38;;;21.85;100.00
41866;BME280;27539;43.222;27.558;2022-08-01T01:33:45;99868.13;;;21.70;100.00
41866;BME280;27539;43.222;27.558;2022-08-01T01:36:13;99909.16;;;21.93;100.00
41866;BME280;27539;43.222;27.558;2022-08-01T01:38:42;99921.94;;;22.08;100.00
41866;BME280;27539;43.222;27.558;2022-08-01T01:41:13;99910.28;;;22.01;100.00
41866;BME280;27539;43.222;27.558;2022-08-01T01:43:41;99896.94;;;22.10;100.00
41866;BME280;27539;43.222;27.558;2022-08-01T01:46:09;99899.22;;;22.17;100.00
41866;BME280;27539;43.222;27.558;2022-08-01T01:48:36;99890.09;;;22.20;100.00
41866;BME280;27539;43.222;27.558;2022-08-01T01:51:03;99882.22;;;22.17;100.00
41866;BME280;27539;43.222;27.558;2022-08-01T01:53:32;99900.53;;;22.28;100.00
41866;BME280;27539;43.222;27.558;2022-08-01T01:56:00;99871.75;;;22.17;100.00
41866;BME280;27539;43.222;27.558;2022-08-01T01:58:27;99892.22;;;22.23;100.00
41866;BME280;27539;43.222;27.558;2022-08-01T02:00:55;99893.53;;;22.26;100.00
41866;BME280;27539;43.222;27.558;2022-08-01T02:03:22;99884.41;;;22.20;100.00
41866;BME280;27539;43.222;27.558;2022-08-01T02:05:51;99889.22;;;22.19;100.00
41866;BME280;27539;43.222;27.558;2022-08-01T02:08:18;99894.72;;;22.16;100.00
41866;BME280;27539;43.222;27.558;2022-08-01T02:10:45;99880.16;;;21.96;100.00
41866;BME280;27539;43.222;27.558;2022-08-01T02:13:33;99899.13;;;22.05;100.00
41866;BME280;27539;43.222;27.558;2022-08-01T02:16:00;99908.09;;;22.07;100.00
41866;BME280;27539;43.222;27.558;2022-08-01T02:18:27;99907.13;;;22.03;100.00
41866;BME280;27539;43.222;27.558;2022-08-01T02:20:54;99905.81;;;22.00;100.00
41866;BME280;27539;43.222;27.558;2022-08-01T02:23:22;99881.09;;;21.79;100.00
41866;BME280;27539;43.222;27.558;2022-08-01T02:25:51;99918.97;;;21.96;100.00
41866;BME280;27539;43.222;27.558;2022-08-01T02:28:22;99914.06;;;21.67;100.00
41866;BME280;27539;43.222;27.558;2022-08-01T02:30:54;99932.38;;;21.69;100.00
41866;BME280;27539;43.222;27.558;2022-08-01T02:33:24;99930.13;;;21.45;100.00
41866;BME280;27539;43.222;27.558;2022-08-01T02:35:55;99926.31;;;21.06;100.00
41866;BME280;27539;43.222;27.558;2022-08-01T02:38:23;99922.66;;;20.80;100.00
41866;BME280;27539;43.222;27.558;2022-08-01T02:40:52;99937.31;;;20.99;100.00
41866;BME280;27539;43.222;27.558;2022-08-01T02:43:21;99933.81;;;20.85;100.00
41866;BME280;27539;43.222;27.558;2022-08-01T02:45:52;99954.91;;;20.96;100.00
41866;BME280;27539;43.222;27.558;2022-08-01T02:48:19;99948.59;;;20.73;100.00
41866;BME280;27539;43.222;27.558;2022-08-01T02:50:48;99954.94;;;20.87;100.00
41866;BME280;27539;43.222;27.558;2022-08-01T02:53:16;99925.81;;;20.69;100.00
41866;BME280;27539;43.222;27.558;2022-08-01T02:55:43;99942.09;;;20.81;100.00
41866;BME280;27539;43.222;27.558;2022-08-01T02:58:12;99925.94;;;20.56;100.00
41866;BME280;27539;43.222;27.558;2022-08-01T03:00:39;99957.88;;;20.65;100.00
41866;BME280;27539;43.222;27.558;2022-08-01T03:03:07;99932.84;;;20.41;100.00
41866;BME280;27539;43.222;27.558;2022-08-01T03:05:34;99970.16;;;20.60;100.00
41866;BME280;27539;43.222;27.558;2022-08-01T03:08:02;99952.03;;;20.61;100.00
41866;BME280;27539;43.222;27.558;2022-08-01T03:10:29;99961.94;;;20.33;100.00
41866;BME280;27539;43.222;27.558;2022-08-01T03:12:55;99969.41;;;20.37;100.00
41866;BME280;27539;43.222;27.558;2022-08-01T03:15:23;99978.88;;;20.41;100.00
41866;BME280;27539;43.222;27.558;2022-08-01T03:17:51;99975.91;;;20.46;100.00
41866;BME280;27539;43.222;27.558;2022-08-01T03:20:20;99985.78;;;20.58;100.00
41866;BME280;27539;43.222;27.558;2022-08-01T03:22:50;99981.16;;;20.62;100.00
41866;BME280;27539;43.222;27.558;2022-08-01T03:25:18;99976.91;;;20.42;100.00
41866;BME280;27539;43.222;27.558;2022-08-01T03:27:50;99964.97;;;20.45;100.00
41866;BME280;27539;43.222;27.558;2022-08-01T03:30:17;99972.59;;;20.44;100.00
41866;BME280;27539;43.222;27.558;2022-08-01T03:32:42;99980.72;;;20.37;100.00
41866;BME280;27539;43.222;27.558;2022-08-01T03:35:08;99973.25;;;20.41;100.00
41866;BME280;27539;43.222;27.558;2022-08-01T03:37:38;99945.56;;;20.12;100.00
41866;BME280;27539;43.222;27.558;2022-08-01T03:40:09;99987.34;;;20.24;100.00
41866;BME280;27539;43.222;27.558;2022-08-01T03:42:47;99971.13;;;20.07;100.00
41866;BME280;27539;43.222;27.558;2022-08-01T03:45:21;99969.97;;;20.08;100.00
41866;BME280;27539;43.222;27.558;2022-08-01T03:47:49;99971.66;;;20.09;100.00
41866;BME280;27539;43.222;27.558;2022-08-01T03:50:20;99959.31;;;20.05;100.00
41866;BME280;27539;43.222;27.558;2022-08-01T03:52:46;99963.81;;;20.06;100.00
41866;BME280;27539;43.222;27.558;2022-08-01T03:56:07;99922.56;;;19.88;100.00
41866;BME280;27539;43.222;27.558;2022-08-01T03:58:34;99966.00;;;20.09;100.00
41866;BME280;27539;43.222;27.558;2022-08-01T04:01:00;99966.00;;;20.09;100.00
41866;BME280;27539;43.222;27.558;2022-08-01T04:03:27;99967.66;;;20.10;100.00
41866;BME280;27539;43.222;27.558;2022-08-01T04:05:53;99963.59;;;19.94;100.00
41866;BME280;27539;43.222;27.558;2022-08-01T04:08:18;99929.50;;;19.81;100.00
41866;BME280;27539;43.222;27.558;2022-08-01T04:10:44;99932.66;;;19.89;100.00
41866;BME280;27539;43.222;27.558;2022-08-01T04:13:09;99958.06;;;20.20;100.00
41866;BME280;27539;43.222;27.558;2022-08-01T04:15:35;99918.00;;;20.09;100.00
41866;BME280;27539;43.222;27.558;2022-08-01T04:18:00;99953.16;;;20.43;100.00
41866;BME280;27539;43.222;27.558;2022-08-01T04:20:26;99920.56;;;20.37;100.00
41866;BME280;27539;43.222;27.558;2022-08-01T04:22:51;99956.03;;;20.69;100.00
41866;BME280;27539;43.222;27.558;2022-08-01T04:25:33;99963.88;;;20.81;100.00
41866;BME280;27539;43.222;27.558;2022-08-01T04:28:01;99960.22;;;20.89;100.00
41866;BME280;27539;43.222;27.558;2022-08-01T04:30:31;99961.75;;;20.95;100.00
41866;BME280;27539;43.222;27.558;2022-08-01T04:33:00;99949.94;;;20.93;100.00
41866;BME280;27539;43.222;27.558;2022-08-01T04:35:26;99951.25;;;20.96;100.00
41866;BME280;27539;43.222;27.558;2022-08-01T04:37:53;99927.50;;;20.97;100.00
41866;BME280;27539;43.222;27.558;2022-08-01T04:40:19;99967.91;;;21.23;100.00
41866;BME280;27539;43.222;27.558;2022-08-01T04:42:48;99978.38;;;21.31;100.00
41866;BME280;27539;43.222;27.558;2022-08-01T04:45:14;99975.25;;;21.50;100.00
41866;BME280;27539;43.222;27.558;2022-08-01T04:47:40;99977.22;;;21.67;100.00
41866;BME280;27539;43.222;27.558;2022-08-01T04:50:09;99973.84;;;21.74;100.00
41866;BME280;27539;43.222;27.558;2022-08-01T04:52:35;99977.50;;;21.83;100.00
41866;BME280;27539;43.222;27.558;2022-08-01T04:55:03;99947.84;;;21.81;100.00
41866;BME280;27539;43.222;27.558;2022-08-01T04:57:29;99972.97;;;21.91;100.00
41866;BME280;27539;43.222;27.558;2022-08-01T04:59:55;99963.81;;;21.94;100.00
41866;BME280;27539;43.222;27.558;2022-08-01T05:02:22;99974.44;;;22.06;100.00
41866;BME280;27539;43.222;27.558;2022-08-01T05:04:48;99960.28;;;22.06;100.00
41866;BME280;27539;43.222;27.558;2022-08-01T05:07:13;99960.72;;;22.25;100.00
41866;BME280;27539;43.222;27.558;2022-08-01T05:09:40;99964.50;;;22.29;100.00
41866;BME280;27539;43.222;27.558;2022-08-01T05:12:11;99967.94;;;22.43;100.00
41866;BME280;27539;43.222;27.558;2022-08-01T05:14:36;99961.19;;;22.57;100.00
41866;BME280;27539;43.222;27.558;2022-08-01T05:17:03;99960.53;;;22.60;100.00
41866;BME280;27539;43.222;27.558;2022-08-01T05:19:30;99964.41;;;22.76;100.00
41866;BME280;27539;43.222;27.558;2022-08-01T05:22:01;99954.59;;;22.95;100.00
41866;BME280;27539;43.222;27.558;2022-08-01T05:24:30;99949.78;;;22.95;100.00
41866;BME280;27539;43.222;27.558;2022-08-01T05:26:56;99949.03;;;23.07;100.00
41866;BME280;27539;43.222;27.558;2022-08-01T05:29:22;99949.53;;;23.09;100.00
41866;BME280;27539;43.222;27.558;2022-08-01T05:31:48;99940.38;;;23.24;100.00
41866;BME280;27539;43.222;27.558;2022-08-01T05:34:14;99941.25;;;23.37;100.00
41866;BME280;27539;43.222;27.558;2022-08-01T05:36:39;99944.50;;;23.48;100.00
41866;BME280;27539;43.222;27.558;2022-08-01T05:39:05;99947.47;;;23.51;100.00
41866;BME280;27539;43.222;27.558;2022-08-01T05:41:30;99951.66;;;23.66;93.59
41866;BME280;27539;43.222;27.558;2022-08-01T05:43:56;99915.66;;;23.58;94.45
41866;BME280;27539;43.222;27.558;2022-08-01T05:46:21;99941.94;;;23.67;89.84
41866;BME280;27539;43.222;27.558;2022-08-01T05:48:47;99937.53;;;23.79;88.97
41866;BME280;27539;43.222;27.558;2022-08-01T05:51:12;99905.78;;;23.77;85.37
41866;BME280;27539;43.222;27.558;2022-08-01T05:53:38;99930.47;;;24.09;88.88
41866;BME280;27539;43.222;27.558;2022-08-01T05:56:04;99932.72;;;24.16;84.79
41866;BME280;27539;43.222;27.558;2022-08-01T05:58:30;99932.84;;;24.32;86.51
41866;BME280;27539;43.222;27.558;2022-08-01T06:00:57;99941.13;;;24.37;83.07
41866;BME280;27539;43.222;27.558;2022-08-01T06:03:23;99899.09;;;24.30;82.21
41866;BME280;27539;43.222;27.558;2022-08-01T06:05:48;99930.13;;;24.60;81.38
41866;BME280;27539;43.222;27.558;2022-08-01T06:08:14;99908.22;;;24.61;78.24
41866;BME280;27539;43.222;27.558;2022-08-01T06:10:39;99919.06;;;24.83;79.02
41866;BME280;27539;43.222;27.558;2022-08-01T06:13:05;99915.50;;;24.86;79.77
41866;BME280;27539;43.222;27.558;2022-08-01T06:15:32;99921.75;;;24.92;75.54
41866;BME280;27539;43.222;27.558;2022-08-01T06:17:58;99912.75;;;24.90;75.37
41866;BME280;27539;43.222;27.558;2022-08-01T06:20:23;99901.78;;;24.76;76.21
41866;BME280;27539;43.222;27.558;2022-08-01T06:22:49;99914.84;;;25.05;73.54
41866;BME280;27539;43.222;27.558;2022-08-01T06:25:17;99914.56;;;25.22;72.92
41866;BME280;27539;43.222;27.558;2022-08-01T06:27:43;99896.50;;;24.90;70.78
41866;BME280;27539;43.222;27.558;2022-08-01T06:30:09;99904.13;;;25.27;71.81
41866;BME280;27539;43.222;27.558;2022-08-01T06:32:34;99908.25;;;25.29;70.23
41866;BME280;27539;43.222;27.558;2022-08-01T06:35:00;99903.63;;;25.53;71.04
41866;BME280;27539;43.222;27.558;2022-08-01T06:37:29;99895.75;;;25.62;67.33
41866;BME280;27539;43.222;27.558;2022-08-01T06:39:55;99892.38;;;25.72;67.74
41866;BME280;27539;43.222;27.558;2022-08-01T06:42:20;99897.88;;;25.65;68.29
41866;BME280;27539;43.222;27.558;2022-08-01T06:44:46;99885.22;;;25.78;67.54
41866;BME280;27539;43.222;27.558;2022-08-01T06:47:11;99898.47;;;25.86;67.33
41866;BME280;27539;43.222;27.558;2022-08-01T06:49:37;99885.06;;;25.87;66.05
41866;BME280;27539;43.222;27.558;2022-08-01T06:52:03;99878.91;;;26.01;65.10
41866;BME280;27539;43.222;27.558;2022-08-01T06:54:29;99871.50;;;26.16;65.62
41866;BME280;27539;43.222;27.558;2022-08-01T06:56:54;99871.34;;;26.24;65.02
41866;BME280;27539;43.222;27.558;2022-08-01T06:59:20;99868.16;;;26.45;64.22
41866;BME280;27539;43.222;27.558;2022-08-01T07:01:45;99871.28;;;26.40;62.48
41866;BME280;27539;43.222;27.558;2022-08-01T07:04:10;99864.53;;;26.29;64.64
41866;BME280;27539;43.222;27.558;2022-08-01T07:06:36;99883.44;;;26.53;63.46
41866;BME280;27539;43.222;27.558;2022-08-01T07:09:02;99870.47;;;26.40;61.95
41866;BME280;27539;43.222;27.558;2022-08-01T07:11:28;99854.00;;;26.49;62.10
41866;BME280;27539;43.222;27.558;2022-08-01T07:13:54;99874.97;;;26.57;62.92
41866;BME280;27539;43.222;27.558;2022-08-01T07:16:19;99843.34;;;26.46;61.15
41866;BME280;27539;43.222;27.558;2022-08-01T07:18:45;99872.06;;;26.72;59.02
41866;BME280;27539;43.222;27.558;2022-08-01T07:21:10;99841.38;;;26.50;59.69
41866;BME280;27539;43.222;27.558;2022-08-01T07:23:36;99856.91;;;26.88;59.89
41866;BME280;27539;43.222;27.558;2022-08-01T07:26:03;99868.78;;;27.09;60.24
41866;BME280;27539;43.222;27.558;2022-08-01T07:28:29;99870.06;;;26.92;57.51
41866;BME280;27539;43.222;27.558;2022-08-01T07:30:54;99861.34;;;27.05;59.00
41866;BME280;27539;43.222;27.558;2022-08-01T07:33:20;99871.81;;;27.17;57.89
41866;BME280;27539;43.222;27.558;2022-08-01T07:35:45;99840.84;;;26.99;56.10
41866;BME280;27539;43.222;27.558;2022-08-01T07:38:11;99860.22;;;27.09;57.20
41866;BME280;27539;43.222;27.558;2022-08-01T07:40:37;99866.41;;;27.11;55.90
41866;BME280;27539;43.222;27.558;2022-08-01T07:43:02;99863.31;;;27.20;57.27
41866;BME280;27539;43.222;27.558;2022-08-01T07:45:28;99845.38;;;27.20;57.22
41866;BME280;27539;43.222;27.558;2022-08-01T07:47:54;99843.00;;;27.06;57.84
41866;BME280;27539;43.222;27.558;2022-08-01T07:50:19;99824.75;;;27.10;59.15
41866;BME280;27539;43.222;27.558;2022-08-01T07:52:45;99863.47;;;27.27;56.21
41866;BME280;27539;43.222;27.558;2022-08-01T07:55:11;99862.84;;;27.38;55.88
41866;BME280;27539;43.222;27.558;2022-08-01T07:57:37;99856.78;;;27.62;54.24
41866;BME280;27539;43.222;27.558;2022-08-01T08:00:04;99868.03;;;27.74;56.05
41866;BME280;27539;43.222;27.558;2022-08-01T08:02:31;99870.56;;;27.56;54.22
41866;BME280;27539;43.222;27.558;2022-08-01T08:04:57;99875.78;;;27.74;54.45
41866;BME280;27539;43.222;27.558;2022-08-01T08:07:22;99873.94;;;28.08;55.36
41866;BME280;27539;43.222;27.558;2022-08-01T08:09:48;99855.69;;;28.16;54.96
41866;BME280;27539;43.222;27.558;2022-08-01T08:12:13;99860.09;;;28.10;53.84
41866;BME280;27539;43.222;27.558;2022-08-01T08:14:39;99865.94;;;28.17;51.33
41866;BME280;27539;43.222;27.558;2022-08-01T08:17:05;99858.03;;;27.84;54.37
41866;BME280;27539;43.222;27.558;2022-08-01T08:19:31;99864.84;;;28.26;52.45
41866;BME280;27539;43.222;27.558;2022-08-01T08:21:59;99881.25;;;28.06;51.78
41866;BME280;27539;43.222;27.558;2022-08-01T08:24:24;99871.88;;;28.05;51.94
41866;BME280;27539;43.222;27.558;2022-08-01T08:26:55;99885.13;;;28.43;53.00
41866;BME280;27539;43.222;27.558;2022-08-01T08:29:21;99878.00;;;28.30;52.70
41866;BME280;27539;43.222;27.558;2022-08-01T08:31:48;99856.81;;;28.35;53.82
41866;BME280;27539;43.222;27.558;2022-08-01T08:34:14;99845.19;;;28.47;53.01
41866;BME280;27539;43.222;27.558;2022-08-01T08:36:40;99863.97;;;28.45;51.81
41866;BME280;27539;43.222;27.558;2022-08-01T08:39:06;99872.47;;;28.68;52.27
41866;BME280;27539;43.222;27.558;2022-08-01T08:41:32;99845.38;;;28.35;51.44
41866;BME280;27539;43.222;27.558;2022-08-01T08:44:00;99878.31;;;28.78;49.86
41866;BME280;27539;43.222;27.558;2022-08-01T08:46:27;99875.09;;;29.10;49.78
41866;BME280;27539;43.222;27.558;2022-08-01T08:48:54;99870.16;;;28.77;49.33
41866;BME280;27539;43.222;27.558;2022-08-01T08:51:21;99846.94;;;28.85;48.28
41866;BME280;27539;43.222;27.558;2022-08-01T08:53:50;99860.22;;;29.01;47.27
41866;BME280;27539;43.222;27.558;2022-08-01T08:56:17;99858.03;;;28.87;48.74
41866;BME280;27539;43.222;27.558;2022-08-01T08:58:44;99864.44;;;29.07;48.45
41866;BME280;27539;43.222;27.558;2022-08-01T09:01:11;99873.63;;;29.23;47.25
41866;BME280;27539;43.222;27.558;2022-08-01T09:03:38;99874.25;;;29.43;46.39
41866;BME280;27539;43.222;27.558;2022-08-01T09:06:04;99883.19;;;29.35;47.00
41866;BME280;27539;43.222;27.558;2022-08-01T09:08:29;99844.69;;;29.32;46.68
41866;BME280;27539;43.222;27.558;2022-08-01T09:10:55;99873.47;;;29.46;47.33
41866;BME280;27539;43.222;27.558;2022-08-01T09:13:20;99856.44;;;29.61;49.32
41866;BME280;27539;43.222;27.558;2022-08-01T09:15:51;99873.53;;;29.50;47.41
41866;BME280;27539;43.222;27.558;2022-08-01T09:18:32;99869.16;;;29.63;46.89
41866;BME280;27539;43.222;27.558;2022-08-01T09:21:18;99874.84;;;28.92;47.22
41866;BME280;27539;43.222;27.558;2022-08-01T09:23:53;99855.03;;;29.44;46.32
41866;BME280;27539;43.222;27.558;2022-08-01T09:26:21;99856.34;;;29.50;45.06
41866;BME280;27539;43.222;27.558;2022-08-01T09:28:53;99848.38;;;29.33;47.05
41866;BME280;27539;43.222;27.558;2022-08-01T09:31:18;99836.75;;;29.56;46.18
41866;BME280;27539;43.222;27.558;2022-08-01T09:33:49;99836.91;;;29.70;47.38
41866;BME280;27539;43.222;27.558;2022-08-01T09:36:15;99844.44;;;29.89;45.69
41866;BME280;27539;43.222;27.558;2022-08-01T09:38:41;99852.38;;;30.06;45.13
41866;BME280;27539;43.222;27.558;2022-08-01T09:41:06;99827.16;;;29.82;44.34
41866;BME280;27539;43.222;27.558;2022-08-01T09:43:32;99849.03;;;29.97;46.39
41866;BME280;27539;43.222;27.558;2022-08-01T09:45:59;99848.41;;;29.74;45.08
41866;BME280;27539;43.222;27.558;2022-08-01T09:48:29;99838.75;;;29.92;44.79
41866;BME280;27539;43.222;27.558;2022-08-01T09:50:59;99842.47;;;30.48;46.31
41866;BME280;27539;43.222;27.558;2022-08-01T09:53:24;99846.41;;;30.88;44.56
41866;BME280;27539;43.222;27.558;2022-08-01T09:55:50;99831.94;;;30.74;43.23
41866;BME280;27539;43.222;27.558;2022-08-01T09:58:17;99828.03;;;30.34;43.73
41866;BME280;27539;43.222;27.558;2022-08-01T10:00:57;99826.88;;;30.49;45.26
41866;BME280;27539;43.222;27.558;2022-08-01T10:03:26;99834.03;;;30.18;44.47
41866;BME280;27539;43.222;27.558;2022-08-01T10:05:52;99850.72;;;29.64;45.95
41866;BME280;27539;43.222;27.558;2022-08-01T10:08:22;99868.88;;;29.35;46.16
41866;BME280;27539;43.222;27.558;2022-08-01T10:11:12;99856.69;;;29.11;47.62
41866;BME280;27539;43.222;27.558;2022-08-01T10:13:38;99827.94;;;29.04;51.14
41866;BME280;27539;43.222;27.558;2022-08-01T10:16:05;99861.56;;;29.44;48.25
41866;BME280;27539;43.222;27.558;2022-08-01T10:18:32;99872.47;;;29.28;47.72
41866;BME280;27539;43.222;27.558;2022-08-01T10:20:59;99857.09;;;28.49;48.78
41866;BME280;27539;43.222;27.558;2022-08-01T10:23:26;99860.75;;;28.50;49.10
41866;BME280;27539;43.222;27.558;2022-08-01T10:25:53;99854.84;;;28.65;51.61
41866;BME280;27539;43.222;27.558;2022-08-01T10:28:21;99850.72;;;28.93;47.65
41866;BME280;27539;43.222;27.558;2022-08-01T10:30:48;99859.28;;;29.20;48.48
41866;BME280;27539;43.222;27.558;2022-08-01T10:33:15;99833.44;;;29.16;48.35
41866;BME280;27539;43.222;27.558;2022-08-01T10:35:40;99844.28;;;29.34;48.94
41866;BME280;27539;43.222;27.558;2022-08-01T10:38:07;99845.91;;;29.68;46.70
41866;BME280;27539;43.222;27.558;2022-08-01T10:40:33;99844.34;;;29.41;46.47
41866;BME280;27539;43.222;27.558;2022-08-01T10:42:59;99832.03;;;29.03;48.54
41866;BME280;27539;43.222;27.558;2022-08-01T10:45:25;99858.94;;;28.95;47.69
41866;BME280;27539;43.222;27.558;2022-08-01T10:48:10;99858.38;;;29.12;50.23
41866;BME280;27539;43.222;27.558;2022-08-01T10:50:49;99846.28;;;29.29;50.02
41866;BME280;27539;43.222;27.558;2022-08-01T10:53:24;99842.94;;;29.61;48.83
41866;BME280;27539;43.222;27.558;2022-08-01T10:58:26;99841.78;;;29.66;47.67
41866;BME280;27539;43.222;27.558;2022-08-01T11:12:08;99846.97;;;29.57;48.77
41866;BME280;27539;43.222;27.558;2022-08-01T11:20:10;99844.06;;;29.49;45.90
41866;BME280;27539;43.222;27.558;2022-08-01T11:38:47;99828.34;;;29.02;50.70
41866;BME280;27539;43.222;27.558;2022-08-01T11:44:00;99803.13;;;28.81;49.00
41866;BME280;27539;43.222;27.558;2022-08-01T11:47:01;99796.66;;;28.84;50.44
41866;BME280;27539;43.222;27.558;2022-08-01T11:57:05;99807.75;;;29.64;48.60
41866;BME280;27539;43.222;27.558;2022-08-01T11:59:40;99806.63;;;29.73;49.21
41866;BME280;27539;43.222;27.558;2022-08-01T12:02:24;99800.25;;;29.93;46.34
41866;BME280;27539;43.222;27.558;2022-08-01T12:05:03;99797.19;;;30.24;45.02
41866;BME280;27539;43.222;27.558;2022-08-01T12:07:30;99796.28;;;30.75;45.41
41866;BME280;27539;43.222;27.558;2022-08-01T12:12:31;99804.63;;;31.12;42.39
41866;BME280;27539;43.222;27.558;2022-08-01T12:14:59;99786.28;;;30.44;43.31
41866;BME280;27539;43.222;27.558;2022-08-01T12:17:43;99794.88;;;30.44;44.14
41866;BME280;27539;43.222;27.558;2022-08-01T12:20:11;99791.69;;;29.97;44.86
41866;BME280;27539;43.222;27.558;2022-08-01T12:22:37;99794.97;;;29.99;44.57
41866;BME280;27539;43.222;27.558;2022-08-01T12:27:33;99780.97;;;30.49;45.96
41866;BME280;27539;43.222;27.558;2022-08-01T12:29:59;99777.31;;;30.60;43.03
41866;BME280;27539;43.222;27.558;2022-08-01T12:32:30;99777.41;;;30.74;43.43
41866;BME280;27539;43.222;27.558;2022-08-01T12:35:02;99769.72;;;30.99;41.05
41866;BME280;27539;43.222;27.558;2022-08-01T12:37:28;99764.84;;;31.14;41.45
41866;BME280;27539;43.222;27.558;2022-08-01T12:39:53;99753.81;;;31.38;40.69
41866;BME280;27539;43.222;27.558;2022-08-01T12:42:19;99733.66;;;31.27;40.05
41866;BME280;27539;43.222;27.558;2022-08-01T12:44:46;99769.88;;;31.82;40.22
41866;BME280;27539;43.222;27.558;2022-08-01T12:47:13;99759.63;;;31.95;38.89
41866;BME280;27539;43.222;27.558;2022-08-01T12:49:42;99751.38;;;32.15;37.59
41866;BME280;27539;43.222;27.558;2022-08-01T12:52:09;99753.81;;;32.27;38.56
41866;BME280;27539;43.222;27.558;2022-08-01T12:57:43;99724.66;;;32.11;37.75
41866;BME280;27539;43.222;27.558;2022-08-01T13:00:15;99741.53;;;31.84;36.81
41866;BME280;27539;43.222;27.558;2022-08-01T13:02:43;99748.94;;;31.53;38.10
41866;BME280;27539;43.222;27.558;2022-08-01T13:05:10;99746.88;;;31.57;38.52
41866;BME280;27539;43.222;27.558;2022-08-01T13:07:45;99708.22;;;31.29;37.43
41866;BME280;27539;43.222;27.558;2022-08-01T13:10:12;99748.91;;;31.60;38.10
41866;BME280;27539;43.222;27.558;2022-08-01T13:12:39;99743.16;;;31.74;38.27
41866;BME280;27539;43.222;27.558;2022-08-01T13:15:23;99753.44;;;32.07;36.66
41866;BME280;27539;43.222;27.558;2022-08-01T13:17:50;99709.09;;;31.94;37.38
41866;BME280;27539;43.222;27.558;2022-08-01T13:20:31;99743.13;;;32.28;35.49
41866;BME280;27539;43.222;27.558;2022-08-01T13:23:13;99727.03;;;32.38;35.52
41866;BME280;27539;43.222;27.558;2022-08-01T13:25:54;99737.84;;;31.91;36.51
41866;BME280;27539;43.222;27.558;2022-08-01T13:28:25;99751.38;;;32.04;37.39
41866;BME280;27539;43.222;27.558;2022-08-01T13:33:20;99721.41;;;31.98;37.55
41866;BME280;27539;43.222;27.558;2022-08-01T13:35:46;99748.84;;;32.39;38.00
41866;BME280;27539;43.222;27.558;2022-08-01T13:38:13;99722.16;;;32.24;36.43
41866;BME280;27539;43.222;27.558;2022-08-01T13:40:38;99738.94;;;32.61;37.17
41866;BME280;27539;43.222;27.558;2022-08-01T13:43:04;99727.97;;;32.13;36.54
41866;BME280;27539;43.222;27.558;2022-08-01T13:45:29;99741.09;;;31.93;37.26
41866;BME280;27539;43.222;27.558;2022-08-01T13:47:55;99746.47;;;31.69;38.13
41866;BME280;27539;43.222;27.558;2022-08-01T13:50:20;99735.38;;;31.64;38.66
41866;BME280;27539;43.222;27.558;2022-08-01T13:52:46;99736.19;;;31.72;39.43
41866;BME280;27539;43.222;27.558;2022-08-01T13:55:11;99748.13;;;31.63;39.22